Time,TemperatureF,DewpointF,PressureIn,WindDirection,WindDirectionDegrees,WindSpeedMPH,WindSpeedGustMPH,Humidity,HourlyPrecipIn,Conditions,Clouds,dailyrainin,SoftwareType,DateUTC
2013-04-15 00:11:00,67.5,63.0,29.74,West,265,0.0,3.0,84,0.00,,,0.00,weatherlink.com 1.10,2013-04-15 05:11:00,
2013-04-15 00:26:00,67.0,62.0,29.74,East,82,0.0,3.0,85,0.00,,,0.00,weatherlink.com 1.10,2013-04-15 05:26:00,
2013-04-15 00:41:00,66.5,62.0,29.74,South,172,0.0,1.0,86,0.00,,,0.00,weatherlink.com 1.10,2013-04-15 05:41:00,
2013-04-15 00:56:00,66.1,62.0,29.74,South,184,0.0,1.0,86,0.00,,,0.00,weatherlink.com 1.10,2013-04-15 05:56:00,
2013-04-15 01:11:00,65.9,62.0,29.74,SSW,199,0.0,5.0,87,0.00,,,0.00,weatherlink.com 1.10,2013-04-15 06:11:00,
2013-04-15 01:26:00,65.6,62.0,29.74,SSW,199,0.0,1.0,87,0.00,,,0.00,weatherlink.com 1.10,2013-04-15 06:26:00,
2013-04-15 01:41:00,65.5,62.0,29.74,SW,224,1.0,3.0,88,0.00,,,0.00,weatherlink.com 1.10,2013-04-15 06:41:00,
2013-04-15 01:56:00,65.3,62.0,29.74,SW,224,0.0,2.0,88,0.00,,,0.00,weatherlink.com 1.10,2013-04-15 06:56:00,
2013-04-15 02:42:00,65.2,62.0,29.74,WSW,247,0.0,3.0,89,0.00,,,0.00,weatherlink.com 1.10,2013-04-15 07:42:00,
2013-04-15 03:11:00,65.7,62.0,29.74,ENE,58,0.0,1.0,89,0.00,,,0.00,weatherlink.com 1.10,2013-04-15 08:11:00,
2013-04-15 03:27:00,65.8,63.0,29.74,South,184,2.0,7.0,89,0.00,,,0.00,weatherlink.com 1.10,2013-04-15 08:27:00,
2013-04-15 04:12:00,65.8,63.0,29.75,SSW,207,0.0,3.0,89,0.00,,,0.00,weatherlink.com 1.10,2013-04-15 09:12:00,
2013-04-15 04:27:00,65.9,63.0,29.75,East,85,0.0,4.0,89,0.00,,,0.00,weatherlink.com 1.10,2013-04-15 09:27:00,
2013-04-15 04:42:00,65.9,63.0,29.75,South,181,0.0,5.0,89,0.00,,,0.00,weatherlink.com 1.10,2013-04-15 09:42:00,
2013-04-15 04:57:00,65.9,63.0,29.75,SSW,200,0.0,5.0,89,0.00,,,0.00,weatherlink.com 1.10,2013-04-15 09:57:00,
2013-04-15 05:12:00,66.0,63.0,29.76,SSW,211,0.0,4.0,89,0.00,,,0.00,weatherlink.com 1.10,2013-04-15 10:12:00,
2013-04-15 05:27:00,66.0,63.0,29.77,SSE,152,0.0,3.0,89,0.00,,,0.00,weatherlink.com 1.10,2013-04-15 10:27:00,
2013-04-15 05:42:00,65.9,63.0,29.77,South,178,0.0,1.0,89,0.00,,,0.00,weatherlink.com 1.10,2013-04-15 10:42:00,
2013-04-15 05:57:00,66.0,63.0,29.78,SW,221,1.0,4.0,89,0.00,,,0.00,weatherlink.com 1.10,2013-04-15 10:57:00,
2013-04-15 06:12:00,66.1,63.0,29.79,SSW,195,0.0,4.0,89,0.00,,,0.00,weatherlink.com 1.10,2013-04-15 11:12:00,
2013-04-15 06:27:00,66.1,63.0,29.79,SSW,203,0.0,2.0,89,0.00,,,0.00,weatherlink.com 1.10,2013-04-15 11:27:00,
2013-04-15 06:42:00,66.2,63.0,29.79,WNW,295,0.0,3.0,89,0.00,,,0.00,weatherlink.com 1.10,2013-04-15 11:42:00,
2013-04-15 06:57:00,66.2,63.0,29.80,SSE,154,0.0,3.0,89,0.00,,,0.00,weatherlink.com 1.10,2013-04-15 11:57:00,
2013-04-15 07:12:00,66.2,63.0,29.80,SSE,164,0.0,1.0,89,0.00,,,0.00,weatherlink.com 1.10,2013-04-15 12:12:00,
2013-04-15 07:27:00,66.3,63.0,29.81,West,270,0.0,3.0,89,0.00,,,0.00,weatherlink.com 1.10,2013-04-15 12:27:00,
2013-04-15 07:42:00,66.5,63.0,29.81,South,179,0.0,1.0,89,0.00,,,0.00,weatherlink.com 1.10,2013-04-15 12:42:00,
2013-04-15 07:57:00,66.7,63.0,29.82,SSE,150,0.0,6.0,89,0.00,,,0.00,weatherlink.com 1.10,2013-04-15 12:57:00,
2013-04-15 08:12:00,67.0,64.0,29.82,SSE,151,0.0,1.0,89,0.00,,,0.00,weatherlink.com 1.10,2013-04-15 13:12:00,
2013-04-15 08:27:00,67.5,64.0,29.83,SSE,161,0.0,3.0,89,0.00,,,0.00,weatherlink.com 1.10,2013-04-15 13:27:00,
2013-04-15 08:42:00,68.3,65.0,29.83,South,174,0.0,5.0,89,0.00,,,0.00,weatherlink.com 1.10,2013-04-15 13:42:00,
2013-04-15 08:57:00,69.1,66.0,29.83,SE,129,0.0,2.0,89,0.00,,,0.00,weatherlink.com 1.10,2013-04-15 13:57:00,
2013-04-15 09:12:00,69.8,66.0,29.83,South,178,0.0,2.0,88,0.00,,,0.00,weatherlink.com 1.10,2013-04-15 14:12:00,
2013-04-15 09:57:00,71.2,67.0,29.84,WSW,255,0.0,6.0,86,0.00,,,0.00,weatherlink.com 1.10,2013-04-15 14:57:00,
2013-04-15 10:12:00,72.2,67.0,29.85,ENE,57,0.0,4.0,84,0.00,,,0.00,weatherlink.com 1.10,2013-04-15 15:12:00,
2013-04-15 10:27:00,73.1,68.0,29.84,SW,222,0.0,5.0,83,0.00,,,0.00,weatherlink.com 1.10,2013-04-15 15:27:00,
2013-04-15 10:42:00,74.6,68.0,29.85,SSE,154,0.0,5.0,80,0.00,,,0.00,weatherlink.com 1.10,2013-04-15 15:42:00,
2013-04-15 10:57:00,75.1,68.0,29.85,South,174,0.0,6.0,79,0.00,,,0.00,weatherlink.com 1.10,2013-04-15 15:57:00,
2013-04-15 11:12:00,75.7,68.0,29.85,SSE,165,6.0,6.0,77,0.00,,,0.00,weatherlink.com 1.10,2013-04-15 16:12:00,
2013-04-15 11:27:00,76.8,68.0,29.85,SSE,147,3.0,6.0,75,0.00,,,0.00,weatherlink.com 1.10,2013-04-15 16:27:00,
2013-04-15 11:43:00,78.0,69.0,29.85,SE,143,0.0,5.0,73,0.00,,,0.00,weatherlink.com 1.10,2013-04-15 16:43:00,
2013-04-15 11:58:00,79.0,69.0,29.84,ESE,120,0.0,5.0,71,0.00,,,0.00,weatherlink.com 1.10,2013-04-15 16:58:00,
2013-04-15 12:13:00,79.7,69.0,29.84,ESE,105,0.0,5.0,69,0.00,,,0.00,weatherlink.com 1.10,2013-04-15 17:13:00,
2013-04-15 12:28:00,79.9,69.0,29.83,ESE,107,1.0,4.0,70,0.00,,,0.00,weatherlink.com 1.10,2013-04-15 17:28:00,
2013-04-15 12:43:00,81.9,70.0,29.83,North,9,0.0,3.0,68,0.00,,,0.00,weatherlink.com 1.10,2013-04-15 17:43:00,
2013-04-15 12:58:00,83.4,71.0,29.82,South,180,0.0,4.0,66,0.00,,,0.00,weatherlink.com 1.10,2013-04-15 17:58:00,
2013-04-15 13:13:00,84.4,70.0,29.82,East,89,0.0,4.0,63,0.00,,,0.00,weatherlink.com 1.10,2013-04-15 18:13:00,
2013-04-15 13:28:00,85.0,70.0,29.81,SE,140,1.0,4.0,61,0.00,,,0.00,weatherlink.com 1.10,2013-04-15 18:28:00,
2013-04-15 13:43:00,85.0,72.0,29.81,NW,323,0.0,4.0,65,0.00,,,0.00,weatherlink.com 1.10,2013-04-15 18:43:00,
2013-04-15 13:58:00,86.2,72.0,29.80,South,189,0.0,5.0,62,0.00,,,0.00,weatherlink.com 1.10,2013-04-15 18:58:00,
2013-04-15 14:13:00,86.0,70.0,29.80,East,97,0.0,5.0,59,0.00,,,0.00,weatherlink.com 1.10,2013-04-15 19:13:00,
2013-04-15 14:28:00,86.6,70.0,29.80,South,174,0.0,4.0,58,0.00,,,0.00,weatherlink.com 1.10,2013-04-15 19:28:00,
2013-04-15 14:43:00,86.7,70.0,29.79,SSE,160,0.0,5.0,58,0.00,,,0.00,weatherlink.com 1.10,2013-04-15 19:43:00,
2013-04-15 14:58:00,85.9,69.0,29.79,SE,134,0.0,5.0,57,0.00,,,0.00,weatherlink.com 1.10,2013-04-15 19:58:00,
2013-04-15 15:13:00,85.7,70.0,29.79,South,188,0.0,5.0,59,0.00,,,0.00,weatherlink.com 1.10,2013-04-15 20:13:00,
2013-04-15 15:28:00,87.1,70.0,29.78,SSE,147,1.0,3.0,57,0.00,,,0.00,weatherlink.com 1.10,2013-04-15 20:28:00,
2013-04-15 15:43:00,87.0,69.0,29.78,SE,132,0.0,4.0,55,0.00,,,0.00,weatherlink.com 1.10,2013-04-15 20:43:00,
2013-04-15 15:58:00,85.5,69.0,29.78,SSW,195,0.0,3.0,59,0.00,,,0.00,weatherlink.com 1.10,2013-04-15 20:58:00,
2013-04-15 16:13:00,85.1,70.0,29.77,SE,124,0.0,4.0,60,0.00,,,0.00,weatherlink.com 1.10,2013-04-15 21:13:00,
2013-04-15 16:28:00,85.9,70.0,29.78,SSE,161,1.0,3.0,59,0.00,,,0.00,weatherlink.com 1.10,2013-04-15 21:28:00,
2013-04-15 16:43:00,87.1,69.0,29.77,WSW,250,0.0,3.0,55,0.00,,,0.00,weatherlink.com 1.10,2013-04-15 21:43:00,
2013-04-15 16:58:00,87.8,69.0,29.77,WSW,251,1.0,4.0,54,0.00,,,0.00,weatherlink.com 1.10,2013-04-15 21:58:00,
2013-04-15 17:13:00,87.9,69.0,29.77,South,181,0.0,3.0,54,0.00,,,0.00,weatherlink.com 1.10,2013-04-15 22:13:00,
2013-04-15 17:28:00,87.3,68.0,29.77,SSW,196,0.0,3.0,53,0.00,,,0.00,weatherlink.com 1.10,2013-04-15 22:28:00,
2013-04-15 17:43:00,87.8,69.0,29.77,SW,234,0.0,3.0,54,0.00,,,0.00,weatherlink.com 1.10,2013-04-15 22:43:00,
2013-04-15 17:58:00,86.6,68.0,29.78,SE,127,0.0,4.0,54,0.00,,,0.00,weatherlink.com 1.10,2013-04-15 22:58:00,
2013-04-15 18:13:00,86.1,69.0,29.78,SSE,165,0.0,3.0,57,0.00,,,0.00,weatherlink.com 1.10,2013-04-15 23:13:00,
2013-04-15 18:28:00,85.3,69.0,29.77,South,170,0.0,4.0,58,0.00,,,0.00,weatherlink.com 1.10,2013-04-15 23:28:00,
2013-04-15 18:43:00,83.8,69.0,29.78,South,176,0.0,1.0,61,0.00,,,0.00,weatherlink.com 1.10,2013-04-15 23:43:00,
2013-04-15 18:58:00,82.0,68.0,29.78,WSW,242,0.0,4.0,63,0.00,,,0.00,weatherlink.com 1.10,2013-04-15 23:58:00,
2013-04-15 19:13:00,80.7,69.0,29.79,SW,236,0.0,1.0,67,0.00,,,0.00,weatherlink.com 1.10,2013-04-16 00:13:00,
2013-04-15 19:28:00,79.2,68.0,29.79,SW,234,0.0,1.0,69,0.00,,,0.00,weatherlink.com 1.10,2013-04-16 00:28:00,
2013-04-15 19:43:00,77.9,69.0,29.80,ESE,104,0.0,3.0,73,0.00,,,0.00,weatherlink.com 1.10,2013-04-16 00:43:00,
2013-04-15 19:58:00,77.1,68.0,29.80,ESE,112,0.0,1.0,74,0.00,,,0.00,weatherlink.com 1.10,2013-04-16 00:58:00,
2013-04-15 20:13:00,76.3,68.0,29.79,SSW,211,0.0,2.0,76,0.00,,,0.00,weatherlink.com 1.10,2013-04-16 01:13:00,
2013-04-15 20:28:00,75.6,68.0,29.80,SSW,211,0.0,0.0,77,0.00,,,0.00,weatherlink.com 1.10,2013-04-16 01:28:00,
2013-04-15 20:43:00,74.8,68.0,29.81,SSW,211,0.0,0.0,79,0.00,,,0.00,weatherlink.com 1.10,2013-04-16 01:43:00,
2013-04-15 20:58:00,74.4,69.0,29.82,SSW,209,0.0,5.0,82,0.00,,,0.00,weatherlink.com 1.10,2013-04-16 01:58:00,
2013-04-15 21:13:00,74.7,69.0,29.84,WNW,284,3.0,3.0,83,0.00,,,0.00,weatherlink.com 1.10,2013-04-16 02:13:00,
2013-04-15 21:28:00,74.4,69.0,29.85,SSE,153,0.0,3.0,84,0.00,,,0.00,weatherlink.com 1.10,2013-04-16 02:28:00,
2013-04-15 21:43:00,74.0,69.0,29.85,SSE,159,0.0,6.0,84,0.00,,,0.00,weatherlink.com 1.10,2013-04-16 02:43:00,
2013-04-15 21:58:00,73.8,68.0,29.85,SW,235,2.0,8.0,83,0.00,,,0.00,weatherlink.com 1.10,2013-04-16 02:58:00,
2013-04-15 22:13:00,73.8,68.0,29.87,SSE,168,2.0,9.0,83,0.00,,,0.00,weatherlink.com 1.10,2013-04-16 03:13:00,
2013-04-15 22:28:00,73.9,69.0,29.87,ESE,117,1.0,4.0,83,0.00,,,0.00,weatherlink.com 1.10,2013-04-16 03:28:00,
2013-04-15 22:43:00,73.8,68.0,29.87,SSE,161,0.0,5.0,83,0.00,,,0.00,weatherlink.com 1.10,2013-04-16 03:43:00,
2013-04-15 22:58:00,73.7,69.0,29.87,SSE,161,0.0,1.0,84,0.00,,,0.00,weatherlink.com 1.10,2013-04-16 03:58:00,
2013-04-15 23:13:00,73.6,69.0,29.87,WSW,237,0.0,3.0,84,0.00,,,0.00,weatherlink.com 1.10,2013-04-16 04:13:00,
2013-04-15 23:28:00,73.4,68.0,29.87,SE,127,0.0,3.0,84,0.00,,,0.00,weatherlink.com 1.10,2013-04-16 04:28:00,
2013-04-15 23:43:00,73.3,69.0,29.87,SE,127,0.0,1.0,85,0.00,,,0.00,weatherlink.com 1.10,2013-04-16 04:43:00,
2013-04-15 23:58:00,73.1,68.0,29.86,SE,127,0.0,1.0,85,0.00,,,0.00,weatherlink.com 1.10,2013-04-16 04:58:00,